Williamsport Regional Airport Williamsport US
ICAO: KIPT
IATA: IPT
Category: Medium
Scheduled Services: Yes

Elevation: 529 ft
TransAlt. 18000 ft.

Airport Communications:
ASOS:125.225
NEW YORK CLNC DEL:124.9
NEW YORK CNTR:124.9
CTAF:119.1
GND:121.9
RDO:122.2
TWR:119.1
UNICOM:122.95

KIPT Zoom In..

If you have problems with the map follow the link
https://www.worldairports.se/pages/airport.php?
ICAO=KIPT

Runways:

(A) RW 09 length 6824 ft width 150 ft
---- / hdg 87

(B) RW 12 length 4273 ft width 150 ft
---- / hdg 116

(C) RW 27 length 6824 ft width 150 ft
ILS 110.10 / hdg 267

(D) RW 30 length 4273 ft width 150 ft
---- / hdg 296

Location; KIPT
Day. 19 / Time. 17.54 Zulu
* Altimeter: 29.88
* Temperature: -01° c. -30.2°f.
* Wind from: 270° Speed 15 kn with Gusts up to 20 kn.
Dewpoint: -07° c.
Visibility: 8 Statute Miles.
Clouds: Broken 3500 ft.
Clouds: Overcast 4700 ft.
Conditions: Light Snow.

KIPT 191754Z 27015G20KT 8SM -SN BKN035 OVC047 M01/M07 A2988 RMK AO2 SNE29B49 SLP123 P0000 60000 T10111072 10022 21011 51017


Wind From 270°
Speed 15 kn.

 
 
jpsmedia worldairports.se 2020   terms of use